sensor_id;sensor_type;location;lat;lon;timestamp;temperature;humidity
20829;DHT22;10575;50.124;8.582;2022-12-18T00:02:12;-7.20;99.90
20829;DHT22;10575;50.124;8.582;2022-12-18T00:04:38;-7.30;99.90
20829;DHT22;10575;50.124;8.582;2022-12-18T00:07:03;-7.30;99.90
20829;DHT22;10575;50.124;8.582;2022-12-18T00:09:29;-7.30;99.90
20829;DHT22;10575;50.124;8.582;2022-12-18T00:11:54;-7.40;99.90
20829;DHT22;10575;50.124;8.582;2022-12-18T00:14:20;-7.40;99.90
20829;DHT22;10575;50.124;8.582;2022-12-18T00:16:46;-7.50;99.90
20829;DHT22;10575;50.124;8.582;2022-12-18T00:19:13;-7.50;99.90
20829;DHT22;10575;50.124;8.582;2022-12-18T00:21:38;-7.50;99.90
20829;DHT22;10575;50.124;8.582;2022-12-18T00:24:05;-7.50;99.90
20829;DHT22;10575;50.124;8.582;2022-12-18T00:26:32;-7.50;99.90
20829;DHT22;10575;50.124;8.582;2022-12-18T00:29:03;-7.40;99.90
20829;DHT22;10575;50.124;8.582;2022-12-18T00:31:30;-7.20;99.90
20829;DHT22;10575;50.124;8.582;2022-12-18T00:33:56;-7.20;99.90
20829;DHT22;10575;50.124;8.582;2022-12-18T00:36:24;-7.20;99.90
20829;DHT22;10575;50.124;8.582;2022-12-18T00:38:50;-7.10;99.90
20829;DHT22;10575;50.124;8.582;2022-12-18T00:41:17;-7.10;99.90
20829;DHT22;10575;50.124;8.582;2022-12-18T00:44:04;-7.30;99.90
20829;DHT22;10575;50.124;8.582;2022-12-18T00:46:30;-7.40;99.90
20829;DHT22;10575;50.124;8.582;2022-12-18T00:48:56;-7.50;99.90
20829;DHT22;10575;50.124;8.582;2022-12-18T00:51:21;-7.40;99.90
20829;DHT22;10575;50.124;8.582;2022-12-18T00:53:47;-7.30;99.90
20829;DHT22;10575;50.124;8.582;2022-12-18T00:56:12;-7.20;99.90
20829;DHT22;10575;50.124;8.582;2022-12-18T00:58:38;-7.10;99.90
20829;DHT22;10575;50.124;8.582;2022-12-18T01:01:04;-7.10;99.90
20829;DHT22;10575;50.124;8.582;2022-12-18T01:03:30;-7.10;99.90
20829;DHT22;10575;50.124;8.582;2022-12-18T01:05:56;-7.10;99.90
20829;DHT22;10575;50.124;8.582;2022-12-18T01:08:22;-7.20;99.90
20829;DHT22;10575;50.124;8.582;2022-12-18T01:10:47;-7.40;99.90
20829;DHT22;10575;50.124;8.582;2022-12-18T01:13:13;-7.40;99.90
20829;DHT22;10575;50.124;8.582;2022-12-18T01:15:38;-7.40;99.90
20829;DHT22;10575;50.124;8.582;2022-12-18T01:18:05;-7.50;99.90
20829;DHT22;10575;50.124;8.582;2022-12-18T01:20:31;-7.60;99.90
20829;DHT22;10575;50.124;8.582;2022-12-18T01:22:56;-7.60;99.90
20829;DHT22;10575;50.124;8.582;2022-12-18T01:25:22;-7.70;99.90
20829;DHT22;10575;50.124;8.582;2022-12-18T01:27:47;-7.70;99.90
20829;DHT22;10575;50.124;8.582;2022-12-18T01:30:13;-7.80;99.90
20829;DHT22;10575;50.124;8.582;2022-12-18T01:32:38;-7.70;99.90
20829;DHT22;10575;50.124;8.582;2022-12-18T01:35:05;-7.70;99.90
20829;DHT22;10575;50.124;8.582;2022-12-18T01:37:30;-7.80;99.90
20829;DHT22;10575;50.124;8.582;2022-12-18T01:39:56;-7.80;99.90
20829;DHT22;10575;50.124;8.582;2022-12-18T01:42:21;-7.90;99.90
20829;DHT22;10575;50.124;8.582;2022-12-18T01:44:56;-7.90;99.90
20829;DHT22;10575;50.124;8.582;2022-12-18T01:47:42;-7.90;99.90
20829;DHT22;10575;50.124;8.582;2022-12-18T01:50:13;-8.00;99.90
20829;DHT22;10575;50.124;8.582;2022-12-18T01:52:41;-8.00;99.90
20829;DHT22;10575;50.124;8.582;2022-12-18T01:55:09;-8.00;99.90
20829;DHT22;10575;50.124;8.582;2022-12-18T01:57:36;-7.80;99.90
20829;DHT22;10575;50.124;8.582;2022-12-18T02:00:07;-7.60;99.90
20829;DHT22;10575;50.124;8.582;2022-12-18T02:02:33;-7.50;99.90
20829;DHT22;10575;50.124;8.582;2022-12-18T02:04:58;-7.40;99.90
20829;DHT22;10575;50.124;8.582;2022-12-18T02:10:27;-7.40;99.90
20829;DHT22;10575;50.124;8.582;2022-12-18T02:13:19;-7.50;99.90
20829;DHT22;10575;50.124;8.582;2022-12-18T02:16:16;-7.50;99.90
20829;DHT22;10575;50.124;8.582;2022-12-18T02:18:47;-7.60;99.90
20829;DHT22;10575;50.124;8.582;2022-12-18T02:21:48;-7.60;99.90
20829;DHT22;10575;50.124;8.582;2022-12-18T02:24:33;-7.70;99.90
20829;DHT22;10575;50.124;8.582;2022-12-18T02:27:03;-7.70;99.90
20829;DHT22;10575;50.124;8.582;2022-12-18T02:29:34;-7.60;99.90
20829;DHT22;10575;50.124;8.582;2022-12-18T02:32:02;-7.70;99.90
20829;DHT22;10575;50.124;8.582;2022-12-18T02:34:33;-7.80;99.90
20829;DHT22;10575;50.124;8.582;2022-12-18T02:37:02;-7.70;99.90
20829;DHT22;10575;50.124;8.582;2022-12-18T02:39:29;-7.70;99.90
20829;DHT22;10575;50.124;8.582;2022-12-18T02:41:57;-7.60;99.90
20829;DHT22;10575;50.124;8.582;2022-12-18T02:44:23;-7.80;99.90
20829;DHT22;10575;50.124;8.582;2022-12-18T02:46:50;-7.90;99.90
20829;DHT22;10575;50.124;8.582;2022-12-18T02:52:25;-8.00;99.90
20829;DHT22;10575;50.124;8.582;2022-12-18T02:55:16;-8.00;99.90
20829;DHT22;10575;50.124;8.582;2022-12-18T02:58:01;-8.10;99.90
20829;DHT22;10575;50.124;8.582;2022-12-18T03:00:35;-8.20;99.90
20829;DHT22;10575;50.124;8.582;2022-12-18T03:03:11;-8.30;99.90
20829;DHT22;10575;50.124;8.582;2022-12-18T03:05:52;-8.30;99.90
20829;DHT22;10575;50.124;8.582;2022-12-18T03:08:27;-8.30;99.90
20829;DHT22;10575;50.124;8.582;2022-12-18T03:11:09;-8.20;99.90
20829;DHT22;10575;50.124;8.582;2022-12-18T03:13:38;-8.20;99.90
20829;DHT22;10575;50.124;8.582;2022-12-18T03:16:06;-8.10;99.90
20829;DHT22;10575;50.124;8.582;2022-12-18T03:18:37;-7.90;99.90
20829;DHT22;10575;50.124;8.582;2022-12-18T03:21:06;-7.80;99.90
20829;DHT22;10575;50.124;8.582;2022-12-18T03:23:36;-7.80;99.90
20829;DHT22;10575;50.124;8.582;2022-12-18T03:26:08;-7.90;99.90
20829;DHT22;10575;50.124;8.582;2022-12-18T03:28:38;-8.00;99.90
20829;DHT22;10575;50.124;8.582;2022-12-18T03:31:05;-7.90;99.90
20829;DHT22;10575;50.124;8.582;2022-12-18T03:33:41;-7.80;99.90
20829;DHT22;10575;50.124;8.582;2022-12-18T03:36:09;-7.80;99.90
20829;DHT22;10575;50.124;8.582;2022-12-18T03:38:34;-7.80;99.90
20829;DHT22;10575;50.124;8.582;2022-12-18T03:41:32;-7.60;99.90
20829;DHT22;10575;50.124;8.582;2022-12-18T03:44:15;-7.60;99.90
20829;DHT22;10575;50.124;8.582;2022-12-18T03:52:28;-7.40;99.90
20829;DHT22;10575;50.124;8.582;2022-12-18T03:54:56;-7.60;99.90
20829;DHT22;10575;50.124;8.582;2022-12-18T03:57:25;-7.70;99.90
20829;DHT22;10575;50.124;8.582;2022-12-18T03:59:57;-7.90;99.90
20829;DHT22;10575;50.124;8.582;2022-12-18T04:02:24;-8.00;99.90
20829;DHT22;10575;50.124;8.582;2022-12-18T04:04:52;-8.10;99.90
20829;DHT22;10575;50.124;8.582;2022-12-18T04:07:20;-8.10;99.90
20829;DHT22;10575;50.124;8.582;2022-12-18T04:09:48;-8.20;99.90
20829;DHT22;10575;50.124;8.582;2022-12-18T04:12:14;-8.30;99.90
20829;DHT22;10575;50.124;8.582;2022-12-18T04:14:39;-8.30;99.90
20829;DHT22;10575;50.124;8.582;2022-12-18T04:17:05;-8.30;99.90
20829;DHT22;10575;50.124;8.582;2022-12-18T04:19:30;-8.20;99.90
20829;DHT22;10575;50.124;8.582;2022-12-18T04:21:56;-8.20;99.90
20829;DHT22;10575;50.124;8.582;2022-12-18T04:24:21;-8.20;99.90
20829;DHT22;10575;50.124;8.582;2022-12-18T04:26:47;-8.30;99.90
20829;DHT22;10575;50.124;8.582;2022-12-18T04:29:12;-8.40;99.90
20829;DHT22;10575;50.124;8.582;2022-12-18T04:31:38;-8.50;99.90
20829;DHT22;10575;50.124;8.582;2022-12-18T04:34:04;-8.50;99.90
20829;DHT22;10575;50.124;8.582;2022-12-18T04:36:29;-8.50;99.90
20829;DHT22;10575;50.124;8.582;2022-12-18T04:38:55;-8.60;99.90
20829;DHT22;10575;50.124;8.582;2022-12-18T04:41:21;-8.60;99.90
20829;DHT22;10575;50.124;8.582;2022-12-18T04:43:46;-8.60;99.90
20829;DHT22;10575;50.124;8.582;2022-12-18T04:46:12;-8.70;99.90
20829;DHT22;10575;50.124;8.582;2022-12-18T04:48:38;-8.70;99.90
20829;DHT22;10575;50.124;8.582;2022-12-18T04:51:04;-8.70;99.90
20829;DHT22;10575;50.124;8.582;2022-12-18T04:53:30;-8.70;99.90
20829;DHT22;10575;50.124;8.582;2022-12-18T04:56:22;-8.70;99.90
20829;DHT22;10575;50.124;8.582;2022-12-18T04:58:48;-8.70;99.90
20829;DHT22;10575;50.124;8.582;2022-12-18T05:01:17;-8.70;99.90
20829;DHT22;10575;50.124;8.582;2022-12-18T05:03:43;-8.70;99.90
20829;DHT22;10575;50.124;8.582;2022-12-18T05:06:09;-8.70;99.90
20829;DHT22;10575;50.124;8.582;2022-12-18T05:08:34;-8.70;99.90
20829;DHT22;10575;50.124;8.582;2022-12-18T05:11:02;-8.60;99.90
20829;DHT22;10575;50.124;8.582;2022-12-18T05:13:28;-8.60;99.90
20829;DHT22;10575;50.124;8.582;2022-12-18T05:15:55;-8.50;99.90
20829;DHT22;10575;50.124;8.582;2022-12-18T05:18:22;-8.60;99.90
20829;DHT22;10575;50.124;8.582;2022-12-18T05:20:49;-8.60;99.90
20829;DHT22;10575;50.124;8.582;2022-12-18T05:23:14;-8.60;99.90
20829;DHT22;10575;50.124;8.582;2022-12-18T05:25:40;-8.60;99.90
20829;DHT22;10575;50.124;8.582;2022-12-18T05:28:05;-8.60;99.90
20829;DHT22;10575;50.124;8.582;2022-12-18T05:30:31;-8.50;99.90
20829;DHT22;10575;50.124;8.582;2022-12-18T05:32:56;-8.30;99.90
20829;DHT22;10575;50.124;8.582;2022-12-18T05:35:22;-8.30;99.90
20829;DHT22;10575;50.124;8.582;2022-12-18T05:37:47;-8.20;99.90
20829;DHT22;10575;50.124;8.582;2022-12-18T05:40:13;-8.10;99.90
20829;DHT22;10575;50.124;8.582;2022-12-18T05:42:39;-8.10;99.90
20829;DHT22;10575;50.124;8.582;2022-12-18T05:45:05;-8.20;99.90
20829;DHT22;10575;50.124;8.582;2022-12-18T05:47:30;-8.30;99.90
20829;DHT22;10575;50.124;8.582;2022-12-18T05:49:56;-8.40;99.90
20829;DHT22;10575;50.124;8.582;2022-12-18T05:52:22;-8.40;99.90
20829;DHT22;10575;50.124;8.582;2022-12-18T05:54:47;-8.50;99.90
20829;DHT22;10575;50.124;8.582;2022-12-18T05:57:13;-8.40;99.90
20829;DHT22;10575;50.124;8.582;2022-12-18T05:59:38;-8.40;99.90
20829;DHT22;10575;50.124;8.582;2022-12-18T06:02:04;-8.40;99.90
20829;DHT22;10575;50.124;8.582;2022-12-18T06:04:29;-8.30;99.90
20829;DHT22;10575;50.124;8.582;2022-12-18T06:06:55;-8.40;99.90
20829;DHT22;10575;50.124;8.582;2022-12-18T06:09:21;-8.40;99.90
20829;DHT22;10575;50.124;8.582;2022-12-18T06:11:46;-8.40;99.90
20829;DHT22;10575;50.124;8.582;2022-12-18T06:14:12;-8.40;99.90
20829;DHT22;10575;50.124;8.582;2022-12-18T06:16:37;-8.40;99.90
20829;DHT22;10575;50.124;8.582;2022-12-18T06:19:04;-8.50;99.90
20829;DHT22;10575;50.124;8.582;2022-12-18T06:21:31;-8.60;99.90
20829;DHT22;10575;50.124;8.582;2022-12-18T06:23:56;-8.70;99.90
20829;DHT22;10575;50.124;8.582;2022-12-18T06:26:22;-8.80;99.90
20829;DHT22;10575;50.124;8.582;2022-12-18T06:28:48;-8.80;99.90
20829;DHT22;10575;50.124;8.582;2022-12-18T06:31:13;-8.90;99.90
20829;DHT22;10575;50.124;8.582;2022-12-18T06:33:39;-8.90;99.90
20829;DHT22;10575;50.124;8.582;2022-12-18T06:36:10;-8.90;99.90
20829;DHT22;10575;50.124;8.582;2022-12-18T06:38:37;-8.90;99.90
20829;DHT22;10575;50.124;8.582;2022-12-18T06:41:11;-8.80;99.90
20829;DHT22;10575;50.124;8.582;2022-12-18T06:43:37;-8.80;99.90
20829;DHT22;10575;50.124;8.582;2022-12-18T06:46:03;-8.70;99.90
20829;DHT22;10575;50.124;8.582;2022-12-18T06:48:29;-8.70;99.90
20829;DHT22;10575;50.124;8.582;2022-12-18T06:50:55;-8.70;99.90
20829;DHT22;10575;50.124;8.582;2022-12-18T06:53:21;-8.80;99.90
20829;DHT22;10575;50.124;8.582;2022-12-18T06:55:46;-8.80;99.90
20829;DHT22;10575;50.124;8.582;2022-12-18T06:58:12;-8.80;99.90
20829;DHT22;10575;50.124;8.582;2022-12-18T07:00:37;-8.70;99.90
20829;DHT22;10575;50.124;8.582;2022-12-18T07:03:03;-8.70;99.90
20829;DHT22;10575;50.124;8.582;2022-12-18T07:05:29;-8.70;99.90
20829;DHT22;10575;50.124;8.582;2022-12-18T07:07:54;-8.70;99.90
20829;DHT22;10575;50.124;8.582;2022-12-18T07:10:20;-8.70;99.90
20829;DHT22;10575;50.124;8.582;2022-12-18T07:12:45;-8.80;99.90
20829;DHT22;10575;50.124;8.582;2022-12-18T07:15:11;-8.80;99.90
20829;DHT22;10575;50.124;8.582;2022-12-18T07:17:36;-8.80;99.90
20829;DHT22;10575;50.124;8.582;2022-12-18T07:20:02;-8.80;99.90
20829;DHT22;10575;50.124;8.582;2022-12-18T07:22:28;-8.90;99.90
20829;DHT22;10575;50.124;8.582;2022-12-18T07:24:53;-8.90;99.90
20829;DHT22;10575;50.124;8.582;2022-12-18T07:27:19;-8.80;99.90
20829;DHT22;10575;50.124;8.582;2022-12-18T07:29:45;-8.80;99.90
20829;DHT22;10575;50.124;8.582;2022-12-18T07:32:10;-8.70;99.90
20829;DHT22;10575;50.124;8.582;2022-12-18T07:34:36;-8.60;99.90
20829;DHT22;10575;50.124;8.582;2022-12-18T07:37:01;-8.40;99.90
20829;DHT22;10575;50.124;8.582;2022-12-18T07:39:27;-8.40;99.90
20829;DHT22;10575;50.124;8.582;2022-12-18T07:41:53;-8.60;99.90
20829;DHT22;10575;50.124;8.582;2022-12-18T07:44:37;-8.50;99.90
20829;DHT22;10575;50.124;8.582;2022-12-18T07:47:02;-8.40;99.90
20829;DHT22;10575;50.124;8.582;2022-12-18T07:49:28;-8.30;99.90
20829;DHT22;10575;50.124;8.582;2022-12-18T07:51:55;-8.20;99.90
20829;DHT22;10575;50.124;8.582;2022-12-18T07:54:21;-8.10;99.90
20829;DHT22;10575;50.124;8.582;2022-12-18T07:56:47;-8.20;99.90
20829;DHT22;10575;50.124;8.582;2022-12-18T07:59:12;-8.00;99.90
20829;DHT22;10575;50.124;8.582;2022-12-18T08:01:38;-8.00;99.90
20829;DHT22;10575;50.124;8.582;2022-12-18T08:04:03;-7.80;99.90
20829;DHT22;10575;50.124;8.582;2022-12-18T08:06:29;-7.70;99.90
20829;DHT22;10575;50.124;8.582;2022-12-18T08:08:55;-7.60;99.90
20829;DHT22;10575;50.124;8.582;2022-12-18T08:11:22;-7.60;99.90
20829;DHT22;10575;50.124;8.582;2022-12-18T08:13:48;-7.50;99.90
20829;DHT22;10575;50.124;8.582;2022-12-18T08:16:14;-7.50;99.90
20829;DHT22;10575;50.124;8.582;2022-12-18T08:18:39;-7.60;99.90
20829;DHT22;10575;50.124;8.582;2022-12-18T08:23:38;-7.80;99.90
20829;DHT22;10575;50.124;8.582;2022-12-18T08:26:03;-7.80;99.90
20829;DHT22;10575;50.124;8.582;2022-12-18T08:28:29;-7.80;99.90
20829;DHT22;10575;50.124;8.582;2022-12-18T08:30:55;-7.90;99.90
20829;DHT22;10575;50.124;8.582;2022-12-18T08:33:20;-7.90;99.90
20829;DHT22;10575;50.124;8.582;2022-12-18T08:35:46;-7.80;99.90
20829;DHT22;10575;50.124;8.582;2022-12-18T08:38:11;-7.70;99.90
20829;DHT22;10575;50.124;8.582;2022-12-18T08:40:37;-7.60;99.90
20829;DHT22;10575;50.124;8.582;2022-12-18T08:43:02;-7.60;99.90
20829;DHT22;10575;50.124;8.582;2022-12-18T08:45:46;-7.60;99.90
20829;DHT22;10575;50.124;8.582;2022-12-18T08:48:12;-7.50;99.90
20829;DHT22;10575;50.124;8.582;2022-12-18T08:50:37;-7.40;99.90
20829;DHT22;10575;50.124;8.582;2022-12-18T08:53:03;-7.40;99.90
20829;DHT22;10575;50.124;8.582;2022-12-18T08:55:29;-7.00;99.90
20829;DHT22;10575;50.124;8.582;2022-12-18T08:57:54;-6.30;99.90
20829;DHT22;10575;50.124;8.582;2022-12-18T09:00:20;-5.80;99.90
20829;DHT22;10575;50.124;8.582;2022-12-18T09:02:45;-5.40;99.90
20829;DHT22;10575;50.124;8.582;2022-12-18T09:05:11;-4.80;99.90
20829;DHT22;10575;50.124;8.582;2022-12-18T09:07:36;-4.10;99.90
20829;DHT22;10575;50.124;8.582;2022-12-18T09:10:02;-3.60;99.90
20829;DHT22;10575;50.124;8.582;2022-12-18T09:12:28;-3.10;99.90
20829;DHT22;10575;50.124;8.582;2022-12-18T09:14:54;-2.70;99.90
20829;DHT22;10575;50.124;8.582;2022-12-18T09:17:19;-2.60;99.90
20829;DHT22;10575;50.124;8.582;2022-12-18T09:19:45;-2.50;99.90
20829;DHT22;10575;50.124;8.582;2022-12-18T09:22:10;-2.50;99.90
20829;DHT22;10575;50.124;8.582;2022-12-18T09:24:36;-2.70;99.90
20829;DHT22;10575;50.124;8.582;2022-12-18T09:27:01;-3.00;99.90
20829;DHT22;10575;50.124;8.582;2022-12-18T09:29:27;-3.30;99.90
20829;DHT22;10575;50.124;8.582;2022-12-18T09:31:53;-3.80;99.90
20829;DHT22;10575;50.124;8.582;2022-12-18T09:34:18;-4.10;99.90
20829;DHT22;10575;50.124;8.582;2022-12-18T09:36:46;-4.40;99.90
20829;DHT22;10575;50.124;8.582;2022-12-18T09:39:12;-4.50;99.90
20829;DHT22;10575;50.124;8.582;2022-12-18T09:41:51;-4.50;99.90
20829;DHT22;10575;50.124;8.582;2022-12-18T09:47:19;-4.30;99.90
20829;DHT22;10575;50.124;8.582;2022-12-18T09:49:50;-4.10;99.90
20829;DHT22;10575;50.124;8.582;2022-12-18T09:52:30;-3.60;99.90
20829;DHT22;10575;50.124;8.582;2022-12-18T09:55:05;-3.60;99.90
20829;DHT22;10575;50.124;8.582;2022-12-18T09:57:35;-3.50;99.90
20829;DHT22;10575;50.124;8.582;2022-12-18T10:00:15;-3.50;99.90
20829;DHT22;10575;50.124;8.582;2022-12-18T10:02:42;-3.40;99.90
20829;DHT22;10575;50.124;8.582;2022-12-18T10:05:14;-3.40;99.90
20829;DHT22;10575;50.124;8.582;2022-12-18T10:10:23;-3.40;99.90
20829;DHT22;10575;50.124;8.582;2022-12-18T10:13:09;-3.20;99.90
20829;DHT22;10575;50.124;8.582;2022-12-18T10:15:54;-2.90;99.90
20829;DHT22;10575;50.124;8.582;2022-12-18T10:18:54;-2.90;99.90
20829;DHT22;10575;50.124;8.582;2022-12-18T10:21:34;-2.80;99.90
20829;DHT22;10575;50.124;8.582;2022-12-18T10:24:34;-2.60;99.90
20829;DHT22;10575;50.124;8.582;2022-12-18T10:27:17;-2.60;99.90
20829;DHT22;10575;50.124;8.582;2022-12-18T10:29:44;-2.50;99.90
20829;DHT22;10575;50.124;8.582;2022-12-18T10:32:16;-2.50;99.90
20829;DHT22;10575;50.124;8.582;2022-12-18T10:34:45;-2.40;99.90
20829;DHT22;10575;50.124;8.582;2022-12-18T10:37:16;-2.50;99.90
20829;DHT22;10575;50.124;8.582;2022-12-18T10:39:43;-2.40;99.90
20829;DHT22;10575;50.124;8.582;2022-12-18T10:42:16;-2.50;99.90
20829;DHT22;10575;50.124;8.582;2022-12-18T10:44:41;-2.60;99.90
20829;DHT22;10575;50.124;8.582;2022-12-18T10:47:12;-2.60;99.90
20829;DHT22;10575;50.124;8.582;2022-12-18T10:49:46;-2.70;99.90
20829;DHT22;10575;50.124;8.582;2022-12-18T10:52:22;-2.70;99.90
20829;DHT22;10575;50.124;8.582;2022-12-18T10:54:59;-2.70;99.90
20829;DHT22;10575;50.124;8.582;2022-12-18T10:57:38;-2.60;99.90
20829;DHT22;10575;50.124;8.582;2022-12-18T11:02:48;-2.80;99.90
20829;DHT22;10575;50.124;8.582;2022-12-18T11:05:33;-2.80;99.90
20829;DHT22;10575;50.124;8.582;2022-12-18T11:08:02;-2.70;99.90
20829;DHT22;10575;50.124;8.582;2022-12-18T11:10:32;-2.80;99.90
20829;DHT22;10575;50.124;8.582;2022-12-18T11:13:21;-2.80;99.90
20829;DHT22;10575;50.124;8.582;2022-12-18T11:15:48;-2.70;99.90
20829;DHT22;10575;50.124;8.582;2022-12-18T11:18:17;-2.90;99.90
20829;DHT22;10575;50.124;8.582;2022-12-18T11:20:50;-3.00;99.90
20829;DHT22;10575;50.124;8.582;2022-12-18T11:23:18;-3.00;99.90
20829;DHT22;10575;50.124;8.582;2022-12-18T11:26:14;-2.90;99.90
20829;DHT22;10575;50.124;8.582;2022-12-18T11:28:43;-2.80;99.90
20829;DHT22;10575;50.124;8.582;2022-12-18T11:33:35;-2.90;99.90
20829;DHT22;10575;50.124;8.582;2022-12-18T11:36:04;-2.80;99.90
20829;DHT22;10575;50.124;8.582;2022-12-18T11:38:32;-2.70;99.90
20829;DHT22;10575;50.124;8.582;2022-12-18T11:46:18;-2.70;99.90
20829;DHT22;10575;50.124;8.582;2022-12-18T11:49:34;-2.70;99.90
20829;DHT22;10575;50.124;8.582;2022-12-18T11:51:38;-2.60;99.90
20829;DHT22;10575;50.124;8.582;2022-12-18T11:54:15;-2.50;99.90
20829;DHT22;10575;50.124;8.582;2022-12-18T11:59:41;-2.30;99.90
20829;DHT22;10575;50.124;8.582;2022-12-18T12:02:33;-2.40;99.90
20829;DHT22;10575;50.124;8.582;2022-12-18T12:05:20;-2.50;99.90
20829;DHT22;10575;50.124;8.582;2022-12-18T12:13:29;-2.30;99.90
20829;DHT22;10575;50.124;8.582;2022-12-18T12:19:31;-2.40;99.90
20829;DHT22;10575;50.124;8.582;2022-12-18T12:25:14;-2.50;99.90
20829;DHT22;10575;50.124;8.582;2022-12-18T12:28:06;-2.50;99.90
20829;DHT22;10575;50.124;8.582;2022-12-18T12:31:03;-2.50;99.90
20829;DHT22;10575;50.124;8.582;2022-12-18T12:33:41;-2.40;99.90
20829;DHT22;10575;50.124;8.582;2022-12-18T12:36:25;-2.40;99.90
20829;DHT22;10575;50.124;8.582;2022-12-18T12:38:56;-2.50;99.90
20829;DHT22;10575;50.124;8.582;2022-12-18T12:41:27;-2.40;99.90
20829;DHT22;10575;50.124;8.582;2022-12-18T12:44:47;-2.40;99.90
20829;DHT22;10575;50.124;8.582;2022-12-18T12:47:18;-2.30;99.90
20829;DHT22;10575;50.124;8.582;2022-12-18T12:49:46;-2.30;99.90
20829;DHT22;10575;50.124;8.582;2022-12-18T12:52:18;-2.20;99.90
20829;DHT22;10575;50.124;8.582;2022-12-18T12:54:46;-2.10;99.90
20829;DHT22;10575;50.124;8.582;2022-12-18T12:57:22;-2.10;99.90
20829;DHT22;10575;50.124;8.582;2022-12-18T13:00:01;-2.30;99.90
20829;DHT22;10575;50.124;8.582;2022-12-18T13:02:42;-2.30;99.90
20829;DHT22;10575;50.124;8.582;2022-12-18T13:05:38;-2.30;99.90
20829;DHT22;10575;50.124;8.582;2022-12-18T13:08:08;-2.20;99.90
20829;DHT22;10575;50.124;8.582;2022-12-18T13:10:36;-2.30;99.90
20829;DHT22;10575;50.124;8.582;2022-12-18T13:13:15;-2.20;99.90
20829;DHT22;10575;50.124;8.582;2022-12-18T13:16:03;-2.20;99.90
20829;DHT22;10575;50.124;8.582;2022-12-18T13:18:29;-2.20;99.90
20829;DHT22;10575;50.124;8.582;2022-12-18T13:23:35;-2.50;99.90
20829;DHT22;10575;50.124;8.582;2022-12-18T13:26:28;-2.40;99.90
20829;DHT22;10575;50.124;8.582;2022-12-18T13:28:55;-2.30;99.90
20829;DHT22;10575;50.124;8.582;2022-12-18T13:34:19;-2.30;99.90
20829;DHT22;10575;50.124;8.582;2022-12-18T13:36:46;-2.20;99.90
20829;DHT22;10575;50.124;8.582;2022-12-18T13:39:25;-2.10;99.90
20829;DHT22;10575;50.124;8.582;2022-12-18T13:47:01;-2.40;99.90
20829;DHT22;10575;50.124;8.582;2022-12-18T13:49:40;-2.40;99.90
20829;DHT22;10575;50.124;8.582;2022-12-18T13:52:17;-2.40;99.90
20829;DHT22;10575;50.124;8.582;2022-12-18T13:54:49;-2.30;99.90
20829;DHT22;10575;50.124;8.582;2022-12-18T13:57:36;-2.20;99.90
20829;DHT22;10575;50.124;8.582;2022-12-18T14:00:32;-2.20;99.90
20829;DHT22;10575;50.124;8.582;2022-12-18T14:02:58;-2.20;99.90
20829;DHT22;10575;50.124;8.582;2022-12-18T14:05:30;-2.40;99.90
20829;DHT22;10575;50.124;8.582;2022-12-18T14:08:01;-2.40;99.90
20829;DHT22;10575;50.124;8.582;2022-12-18T14:10:28;-2.50;99.90
20829;DHT22;10575;50.124;8.582;2022-12-18T14:12:53;-2.50;99.90
20829;DHT22;10575;50.124;8.582;2022-12-18T14:17:52;-2.70;99.90
20829;DHT22;10575;50.124;8.582;2022-12-18T14:20:18;-2.60;99.90
20829;DHT22;10575;50.124;8.582;2022-12-18T14:22:48;-2.70;99.90
20829;DHT22;10575;50.124;8.582;2022-12-18T14:25:23;-2.70;99.90
20829;DHT22;10575;50.124;8.582;2022-12-18T14:33:13;-2.60;99.90
20829;DHT22;10575;50.124;8.582;2022-12-18T14:35:53;-2.60;99.90
20829;DHT22;10575;50.124;8.582;2022-12-18T14:38:33;-2.60;99.90
20829;DHT22;10575;50.124;8.582;2022-12-18T14:41:01;-2.70;99.90
20829;DHT22;10575;50.124;8.582;2022-12-18T14:43:31;-2.60;99.90
20829;DHT22;10575;50.124;8.582;2022-12-18T14:45:57;-2.50;99.90
20829;DHT22;10575;50.124;8.582;2022-12-18T14:48:37;-2.50;99.90
20829;DHT22;10575;50.124;8.582;2022-12-18T14:54:01;-2.60;99.90
20829;DHT22;10575;50.124;8.582;2022-12-18T14:56:33;-2.70;99.90
20829;DHT22;10575;50.124;8.582;2022-12-18T14:59:23;-2.80;99.90
20829;DHT22;10575;50.124;8.582;2022-12-18T15:01:58;-2.80;99.90
20829;DHT22;10575;50.124;8.582;2022-12-18T15:04:28;-2.80;99.90
20829;DHT22;10575;50.124;8.582;2022-12-18T15:09:30;-2.90;99.90
20829;DHT22;10575;50.124;8.582;2022-12-18T15:12:00;-3.00;99.90
20829;DHT22;10575;50.124;8.582;2022-12-18T15:14:35;-3.00;99.90
20829;DHT22;10575;50.124;8.582;2022-12-18T15:17:18;-2.90;99.90
20829;DHT22;10575;50.124;8.582;2022-12-18T15:19:45;-3.00;99.90
20829;DHT22;10575;50.124;8.582;2022-12-18T15:22:25;-3.10;99.90
20829;DHT22;10575;50.124;8.582;2022-12-18T15:24:52;-3.10;99.90
20829;DHT22;10575;50.124;8.582;2022-12-18T15:27:26;-3.10;99.90
20829;DHT22;10575;50.124;8.582;2022-12-18T15:30:24;-3.20;99.90
20829;DHT22;10575;50.124;8.582;2022-12-18T15:32:50;-3.10;99.90
20829;DHT22;10575;50.124;8.582;2022-12-18T15:35:24;-3.10;99.90
20829;DHT22;10575;50.124;8.582;2022-12-18T15:37:51;-3.20;99.90
20829;DHT22;10575;50.124;8.582;2022-12-18T15:40:19;-3.20;99.90
20829;DHT22;10575;50.124;8.582;2022-12-18T15:42:46;-3.20;99.90
20829;DHT22;10575;50.124;8.582;2022-12-18T15:45:30;-3.20;99.90
20829;DHT22;10575;50.124;8.582;2022-12-18T15:47:56;-3.20;99.90
20829;DHT22;10575;50.124;8.582;2022-12-18T15:50:22;-3.30;99.90
20829;DHT22;10575;50.124;8.582;2022-12-18T15:52:49;-3.30;99.90
20829;DHT22;10575;50.124;8.582;2022-12-18T15:55:19;-3.30;99.90
20829;DHT22;10575;50.124;8.582;2022-12-18T15:58:04;-3.30;99.90
20829;DHT22;10575;50.124;8.582;2022-12-18T16:00:30;-3.30;99.90
20829;DHT22;10575;50.124;8.582;2022-12-18T16:02:55;-3.40;99.90
20829;DHT22;10575;50.124;8.582;2022-12-18T16:05:22;-3.40;99.90
20829;DHT22;10575;50.124;8.582;2022-12-18T16:07:48;-3.50;99.90
20829;DHT22;10575;50.124;8.582;2022-12-18T16:10:14;-3.50;99.90
20829;DHT22;10575;50.124;8.582;2022-12-18T16:12:40;-3.50;99.90
20829;DHT22;10575;50.124;8.582;2022-12-18T16:15:07;-3.50;99.90
20829;DHT22;10575;50.124;8.582;2022-12-18T16:17:32;-3.60;99.90
20829;DHT22;10575;50.124;8.582;2022-12-18T16:19:58;-3.60;99.90
20829;DHT22;10575;50.124;8.582;2022-12-18T16:22:26;-3.70;99.90
20829;DHT22;10575;50.124;8.582;2022-12-18T16:24:53;-3.80;99.90
20829;DHT22;10575;50.124;8.582;2022-12-18T16:27:20;-3.80;99.90
20829;DHT22;10575;50.124;8.582;2022-12-18T16:29:46;-3.80;99.90
20829;DHT22;10575;50.124;8.582;2022-12-18T16:32:15;-3.80;99.90
20829;DHT22;10575;50.124;8.582;2022-12-18T16:34:41;-3.80;99.90
20829;DHT22;10575;50.124;8.582;2022-12-18T16:37:08;-3.80;99.90
20829;DHT22;10575;50.124;8.582;2022-12-18T16:39:34;-3.80;99.90
20829;DHT22;10575;50.124;8.582;2022-12-18T16:42:17;-3.80;99.90
20829;DHT22;10575;50.124;8.582;2022-12-18T16:44:45;-3.80;99.90
20829;DHT22;10575;50.124;8.582;2022-12-18T16:47:11;-3.70;99.90
20829;DHT22;10575;50.124;8.582;2022-12-18T16:49:37;-3.70;99.90
20829;DHT22;10575;50.124;8.582;2022-12-18T16:52:04;-3.60;99.90
20829;DHT22;10575;50.124;8.582;2022-12-18T16:54:30;-3.70;99.90
20829;DHT22;10575;50.124;8.582;2022-12-18T16:56:56;-3.70;99.90
20829;DHT22;10575;50.124;8.582;2022-12-18T16:59:21;-3.60;99.90